Time;durP1;ratioP1;P1;durP2;ratioP2;P2;SDS_P1;SDS_P2;PMS_P1;PMS_P2;Temp;Humidity;BMP_temperature;BMP_pressure;BME280_temperature;BME280_humidity;BME280_pressure;Samples;Min_cycle;Max_cycle;Signal;HPM_P1;HPM_P2
2023/01/22 00:00:17;;;;;;;1.17;1.17;;;;;-2.00;96521.00;;;;5033604;28;20188;-66
2023/01/22 00:02:46;;;;;;;2.83;2.20;;;;;-2.10;96525.00;;;;5033425;28;20212;-66
2023/01/22 00:05:13;;;;;;;1.70;1.60;;;;;-2.00;96522.00;;;;5034157;28;20614;-65
2023/01/22 00:07:40;;;;;;;1.43;1.10;;;;;-2.00;96511.00;;;;5033381;28;20209;-65
2023/01/22 00:10:11;;;;;;;2.37;2.23;;;;;-2.10;96517.00;;;;5033490;28;20545;-65
2023/01/22 00:12:38;;;;;;;2.63;2.43;;;;;-2.10;96507.00;;;;5033253;28;20651;-66
2023/01/22 00:15:07;;;;;;;0.90;0.90;;;;;-2.10;96507.00;;;;5033224;28;20200;-65
2023/01/22 00:17:34;;;;;;;1.07;1.07;;;;;-2.20;96507.00;;;;5033142;28;20207;-66
2023/01/22 00:20:01;;;;;;;1.13;1.10;;;;;-2.00;96502.00;;;;5033656;28;20227;-66
2023/01/22 00:22:29;;;;;;;2.07;1.97;;;;;-2.00;96505.00;;;;5033495;28;20721;-66
2023/01/22 00:24:56;;;;;;;2.00;1.83;;;;;-1.90;96510.00;;;;5033702;28;20215;-66
2023/01/22 00:27:25;;;;;;;3.00;1.07;;;;;-2.00;96502.00;;;;5033111;28;20197;-66
2023/01/22 00:29:52;;;;;;;1.77;1.67;;;;;-2.20;96501.00;;;;5033332;28;20585;-65
2023/01/22 00:32:20;;;;;;;3.73;2.57;;;;;-2.20;96504.00;;;;5033089;28;20196;-65
2023/01/22 00:34:51;;;;;;;1.20;1.20;;;;;-2.10;96500.00;;;;5033319;28;20279;-65
2023/01/22 00:37:19;;;;;;;1.03;1.03;;;;;-2.20;96499.00;;;;5015313;28;20571;-66
2023/01/22 00:39:46;;;;;;;1.43;1.33;;;;;-2.20;96492.00;;;;5033535;28;20205;-65
2023/01/22 00:42:13;;;;;;;1.53;1.47;;;;;-2.10;96493.00;;;;5033046;28;20246;-65
2023/01/22 00:44:42;;;;;;;2.60;1.37;;;;;-2.10;96488.00;;;;5033188;28;20192;-65
2023/01/22 00:47:10;;;;;;;1.63;1.53;;;;;-2.00;96480.00;;;;5033191;28;20271;-66
2023/01/22 00:49:37;;;;;;;1.17;1.17;;;;;-2.10;96491.00;;;;5032746;28;20220;-66
2023/01/22 00:52:05;;;;;;;2.13;1.90;;;;;-2.10;96489.00;;;;5033178;28;20191;-66
2023/01/22 00:54:32;;;;;;;2.43;2.30;;;;;-2.10;96498.00;;;;5032960;28;20197;-65
2023/01/22 00:56:59;;;;;;;1.90;1.80;;;;;-2.10;96480.00;;;;5033213;28;20564;-65
2023/01/22 00:59:27;;;;;;;1.80;1.70;;;;;-2.00;96484.00;;;;5032741;28;20219;-65
2023/01/22 01:01:56;;;;;;;1.67;1.57;;;;;-2.00;96479.00;;;;5032802;28;20243;-66
2023/01/22 01:04:23;;;;;;;0.90;0.90;;;;;-2.00;96480.00;;;;5032884;28;20193;-65
2023/01/22 01:06:50;;;;;;;1.47;1.47;;;;;-1.90;96483.00;;;;5033007;28;20571;-65
2023/01/22 01:09:18;;;;;;;1.03;1.03;;;;;-1.90;96478.00;;;;5032605;28;20270;-65
2023/01/22 01:11:45;;;;;;;1.00;0.93;;;;;-2.00;96488.00;;;;5032671;28;20278;-65
2023/01/22 01:14:13;;;;;;;1.13;1.13;;;;;-1.90;96493.00;;;;5032632;28;20192;-65
2023/01/22 01:16:42;;;;;;;1.33;1.23;;;;;-1.90;96484.00;;;;5032640;28;20250;-65
2023/01/22 01:19:12;;;;;;;0.80;0.80;;;;;-1.90;96476.00;;;;5032583;28;20262;-65
2023/01/22 01:21:40;;;;;;;4.13;2.20;;;;;-1.90;96479.00;;;;5032845;28;20180;-66
2023/01/22 01:24:07;;;;;;;1.73;1.63;;;;;-1.90;96478.00;;;;5032525;28;20204;-65
2023/01/22 01:26:35;;;;;;;2.20;2.07;;;;;-2.00;96483.00;;;;5032973;28;20262;-66
2023/01/22 01:29:03;;;;;;;1.23;1.23;;;;;-1.80;96477.00;;;;5036355;28;20212;-66
2023/01/22 01:31:31;;;;;;;2.37;1.90;;;;;-1.80;96479.00;;;;5036297;28;20224;-66
2023/01/22 01:33:58;;;;;;;1.40;1.30;;;;;-1.80;96475.00;;;;5036526;28;20201;-66
2023/01/22 01:36:27;;;;;;;1.47;1.37;;;;;-1.90;96480.00;;;;5036572;28;20197;-66
2023/01/22 01:38:55;;;;;;;1.67;1.57;;;;;-1.80;96487.00;;;;5036251;28;20278;-65
2023/01/22 01:41:24;;;;;;;1.27;1.23;;;;;-1.70;96485.00;;;;5036625;28;20645;-65
2023/01/22 01:44:10;;;;;;;1.67;1.57;;;;;-1.80;96490.00;;;;5036377;28;20625;-66
2023/01/22 01:46:41;;;;;;;1.80;1.70;;;;;-1.80;96486.00;;;;5036653;28;20207;-68
2023/01/22 01:49:18;;;;;;;1.30;1.30;;;;;-1.80;96475.00;;;;5036098;28;20224;-67
2023/01/22 01:51:48;;;;;;;1.37;1.37;;;;;-1.80;96479.00;;;;5036496;28;20211;-66
2023/01/22 01:54:16;;;;;;;1.10;1.10;;;;;-1.80;96468.00;;;;5018164;28;20262;-66
2023/01/22 01:56:49;;;;;;;1.47;1.47;;;;;-1.80;96464.00;;;;5035891;28;20210;-65
2023/01/22 01:59:19;;;;;;;1.83;1.73;;;;;-1.90;96466.00;;;;5035829;28;20279;-65
2023/01/22 02:01:49;;;;;;;1.50;1.47;;;;;-1.90;96474.00;;;;5036108;28;20192;-65
2023/01/22 02:04:17;;;;;;;1.60;1.50;;;;;-2.00;96471.00;;;;5036101;28;20196;-66
2023/01/22 02:06:46;;;;;;;2.37;2.17;;;;;-2.00;96472.00;;;;5035949;28;20655;-66
2023/01/22 02:09:14;;;;;;;1.20;1.20;;;;;-1.90;96471.00;;;;5035554;28;20278;-65
2023/01/22 02:11:42;;;;;;;1.37;1.27;;;;;-1.90;96476.00;;;;5035761;28;20554;-65
2023/01/22 02:14:12;;;;;;;2.07;1.90;;;;;-1.90;96474.00;;;;5036076;28;20189;-65
2023/01/22 02:16:39;;;;;;;1.67;1.57;;;;;-1.90;96480.00;;;;5035311;28;20263;-67
2023/01/22 02:19:07;;;;;;;1.20;1.20;;;;;-1.80;96470.00;;;;5035478;28;20294;-66
2023/01/22 02:21:38;;;;;;;1.77;1.67;;;;;-1.90;96473.00;;;;5035895;28;20196;-66
2023/01/22 02:24:07;;;;;;;1.60;1.50;;;;;-1.90;96477.00;;;;5035340;28;20196;-66
2023/01/22 02:26:34;;;;;;;1.30;1.27;;;;;-1.90;96473.00;;;;5035219;28;20271;-66
2023/01/22 02:29:02;;;;;;;1.27;1.17;;;;;-1.80;96470.00;;;;5035316;28;20556;-66
2023/01/22 02:31:29;;;;;;;2.00;1.57;;;;;-1.80;96461.00;;;;5035354;28;20672;-65
2023/01/22 02:33:57;;;;;;;1.30;1.30;;;;;-1.90;96466.00;;;;5035378;28;20193;-66
2023/01/22 02:36:24;;;;;;;0.90;0.90;;;;;-1.90;96459.00;;;;5017311;28;20209;-66
2023/01/22 02:38:53;;;;;;;2.27;2.03;;;;;-1.90;96465.00;;;;5034756;28;20217;-66
2023/01/22 02:41:21;;;;;;;1.43;1.40;;;;;-1.90;96457.00;;;;5035296;28;20196;-66
2023/01/22 02:43:48;;;;;;;1.10;1.10;;;;;-1.80;96460.00;;;;5035023;28;20203;-66
2023/01/22 02:46:16;;;;;;;1.27;1.27;;;;;-1.80;96453.00;;;;5035308;28;20247;-66
2023/01/22 02:48:44;;;;;;;2.60;2.40;;;;;-1.80;96458.00;;;;5034768;28;20283;-66
2023/01/22 02:51:11;;;;;;;2.80;2.60;;;;;-1.90;96446.00;;;;5034856;28;20220;-66
2023/01/22 02:53:39;;;;;;;1.50;1.50;;;;;-1.90;96450.00;;;;5034906;28;20232;-66
2023/01/22 02:56:08;;;;;;;1.27;1.27;;;;;-1.90;96456.00;;;;5034838;28;20200;-66
2023/01/22 02:58:36;;;;;;;1.70;1.60;;;;;-1.90;96459.00;;;;5034777;28;20286;-66
2023/01/22 03:01:17;;;;;;;1.20;1.20;;;;;-1.80;96454.00;;;;5034725;28;20259;-65
2023/01/22 03:03:45;;;;;;;2.00;1.90;;;;;-1.80;96463.00;;;;5034910;28;20581;-67
2023/01/22 03:06:14;;;;;;;2.73;2.43;;;;;-1.80;96455.00;;;;5034522;28;20232;-64
2023/01/22 03:08:42;;;;;;;2.00;1.90;;;;;-1.80;96448.00;;;;5034374;28;20687;-64
2023/01/22 03:11:11;;;;;;;1.60;1.50;;;;;-1.80;96457.00;;;;5034406;28;20300;-67
2023/01/22 03:21:54;;;;;;;1.60;1.50;;;;;-1.80;96445.00;;;;5034243;28;20246;-64
2023/01/22 03:24:22;;;;;;;1.67;1.57;;;;;-1.80;96444.00;;;;5034272;28;20698;-64
2023/01/22 03:26:50;;;;;;;0.90;0.90;;;;;-1.80;96455.00;;;;5034948;28;20649;-64
2023/01/22 03:29:18;;;;;;;1.50;1.40;;;;;-1.80;96459.00;;;;5034938;28;20213;-64
2023/01/22 03:31:47;;;;;;;1.63;1.63;;;;;-1.80;96442.00;;;;5034814;28;20274;-64
2023/01/22 03:34:15;;;;;;;1.53;1.43;;;;;-1.80;96448.00;;;;5034818;28;20243;-65
2023/01/22 03:36:42;;;;;;;2.27;2.10;;;;;-1.90;96458.00;;;;5033964;28;20284;-65
2023/01/22 03:39:10;;;;;;;2.40;2.20;;;;;-1.80;96450.00;;;;5034105;28;20247;-65
2023/01/22 03:41:37;;;;;;;2.10;1.90;;;;;-1.80;96460.00;;;;5034749;28;20185;-66
2023/01/22 03:44:08;;;;;;;1.93;1.67;;;;;-1.80;96454.00;;;;5034134;28;20660;-65
2023/01/22 03:46:35;;;;;;;1.70;1.60;;;;;-1.70;96450.00;;;;5034144;28;20192;-66
2023/01/22 03:49:03;;;;;;;1.30;1.20;;;;;-1.70;96461.00;;;;5034007;28;20212;-65
2023/01/22 03:51:30;;;;;;;1.97;1.87;;;;;-1.80;96460.00;;;;5033697;28;20220;-65
2023/01/22 03:53:59;;;;;;;1.30;1.20;;;;;-1.80;96451.00;;;;5033726;28;20197;-65
2023/01/22 03:56:27;;;;;;;1.83;1.53;;;;;-1.70;96451.00;;;;5034208;28;20204;-66
2023/01/22 03:58:55;;;;;;;3.20;2.90;;;;;-1.80;96456.00;;;;5033856;28;20225;-66
2023/01/22 04:01:26;;;;;;;2.13;2.03;;;;;-1.90;96456.00;;;;5034058;28;20193;-65
2023/01/22 04:03:53;;;;;;;1.73;1.63;;;;;-1.80;96462.00;;;;5033615;28;20186;-65
2023/01/22 04:06:22;;;;;;;3.43;1.87;;;;;-1.80;96456.00;;;;5033766;28;20200;-65
2023/01/22 04:08:53;;;;;;;1.90;1.77;;;;;-1.70;96449.00;;;;5033418;28;20213;-65
2023/01/22 04:11:20;;;;;;;1.33;1.33;;;;;-1.80;96458.00;;;;5034171;28;20528;-65
2023/01/22 04:13:48;;;;;;;3.43;2.43;;;;;-1.80;96456.00;;;;5033391;28;20741;-65
2023/01/22 04:16:16;;;;;;;1.77;1.67;;;;;-1.70;96448.00;;;;5033368;28;20192;-66
2023/01/22 04:18:45;;;;;;;3.90;1.77;;;;;-1.80;96455.00;;;;5033258;28;20228;-66
2023/01/22 04:21:12;;;;;;;1.03;1.03;;;;;-1.80;96427.00;;;;5033288;28;20193;-65
2023/01/22 04:23:40;;;;;;;3.37;2.50;;;;;-1.70;96462.00;;;;5033413;28;20192;-66
2023/01/22 04:26:07;;;;;;;2.10;1.80;;;;;-1.70;96458.00;;;;5033264;28;20246;-65
2023/01/22 04:28:34;;;;;;;2.33;2.13;;;;;-1.80;96458.00;;;;5033319;28;20319;-65
2023/01/22 04:31:03;;;;;;;1.57;1.50;;;;;-1.80;96456.00;;;;5033344;28;20635;-65
2023/01/22 04:33:30;;;;;;;2.20;2.10;;;;;-1.70;96463.00;;;;5033082;28;20192;-65
2023/01/22 04:35:59;;;;;;;2.00;1.77;;;;;-1.70;96457.00;;;;5033031;28;20197;-65
2023/01/22 04:38:26;;;;;;;2.00;1.37;;;;;-1.70;96466.00;;;;5015305;28;20719;-65
2023/01/22 04:40:54;;;;;;;1.80;1.70;;;;;-1.80;96459.00;;;;5033029;28;20200;-65
2023/01/22 04:43:21;;;;;;;1.03;1.03;;;;;-1.80;96452.00;;;;5033537;28;20193;-65
2023/01/22 04:45:50;;;;;;;1.63;1.53;;;;;-1.60;96463.00;;;;5033049;28;20368;-65
2023/01/22 04:48:18;;;;;;;1.43;1.43;;;;;-1.70;96454.00;;;;5033162;28;20212;-65
2023/01/22 04:50:45;;;;;;;1.80;1.70;;;;;-1.70;96460.00;;;;5033150;28;20197;-65
2023/01/22 04:53:14;;;;;;;2.30;1.97;;;;;-1.80;96456.00;;;;5032946;28;20274;-65
2023/01/22 04:55:42;;;;;;;9.93;2.67;;;;;-1.80;96448.00;;;;5033060;28;20199;-65
2023/01/22 04:58:09;;;;;;;1.97;1.80;;;;;-1.70;96462.00;;;;5033443;28;20256;-65
2023/01/22 05:00:37;;;;;;;2.27;2.17;;;;;-1.70;96457.00;;;;5015146;28;20726;-66
2023/01/22 05:03:04;;;;;;;1.93;1.83;;;;;-1.70;96469.00;;;;5035243;28;20718;-65
2023/01/22 05:05:33;;;;;;;1.50;1.43;;;;;-1.70;96472.00;;;;5036854;28;20204;-65
2023/01/22 05:08:01;;;;;;;1.73;1.63;;;;;-1.70;96476.00;;;;5036725;28;20259;-66
2023/01/22 05:10:30;;;;;;;2.20;2.10;;;;;-1.60;96471.00;;;;5037023;28;20200;-65
2023/01/22 05:12:57;;;;;;;2.17;1.97;;;;;-1.60;96474.00;;;;5036659;28;20684;-65
2023/01/22 05:15:24;;;;;;;1.50;1.43;;;;;-1.60;96480.00;;;;5036684;28;20243;-65
2023/01/22 05:17:52;;;;;;;2.23;2.03;;;;;-1.70;96473.00;;;;5018894;28;20234;-65
2023/01/22 05:20:19;;;;;;;1.60;1.50;;;;;-1.70;96473.00;;;;5036613;28;20714;-65
2023/01/22 05:22:47;;;;;;;2.67;2.40;;;;;-1.70;96480.00;;;;5018830;28;20605;-65
2023/01/22 05:25:14;;;;;;;1.80;1.70;;;;;-1.60;96491.00;;;;5036874;28;20193;-66
2023/01/22 05:27:43;;;;;;;1.87;1.77;;;;;-1.60;96493.00;;;;5036635;28;20216;-66
2023/01/22 05:30:12;;;;;;;1.60;1.50;;;;;-1.70;96490.00;;;;5036374;28;20192;-66
2023/01/22 05:32:39;;;;;;;2.33;1.67;;;;;-1.60;96489.00;;;;5036846;28;20258;-66
2023/01/22 05:35:07;;;;;;;1.63;1.53;;;;;-1.60;96494.00;;;;5036421;28;20285;-66
2023/01/22 05:37:34;;;;;;;1.97;1.50;;;;;-1.60;96493.00;;;;5036258;28;20193;-66
2023/01/22 05:40:04;;;;;;;1.67;1.57;;;;;-1.70;96493.00;;;;5036369;28;20660;-66
2023/01/22 05:42:31;;;;;;;1.90;1.80;;;;;-1.70;96490.00;;;;5036510;28;20196;-66
2023/01/22 05:45:00;;;;;;;2.50;1.93;;;;;-1.60;96494.00;;;;5036435;28;20247;-66
2023/01/22 05:47:28;;;;;;;1.87;1.77;;;;;-1.70;96486.00;;;;5036360;28;20714;-66
2023/01/22 05:49:56;;;;;;;1.37;1.33;;;;;-1.70;96502.00;;;;5036658;28;20189;-66
2023/01/22 05:52:23;;;;;;;2.80;1.50;;;;;-1.70;96498.00;;;;5035947;28;20224;-66
2023/01/22 05:54:50;;;;;;;1.87;1.77;;;;;-1.70;96499.00;;;;5035890;28;20254;-66
2023/01/22 05:57:18;;;;;;;1.90;1.47;;;;;-1.70;96499.00;;;;5036171;28;20274;-66
2023/01/22 05:59:45;;;;;;;1.77;1.67;;;;;-1.70;96500.00;;;;5036404;28;20247;-66
2023/01/22 06:02:14;;;;;;;1.87;1.77;;;;;-1.70;96503.00;;;;5018079;28;20256;-66
2023/01/22 06:04:41;;;;;;;2.17;1.77;;;;;-1.70;96512.00;;;;5036010;28;20559;-68
2023/01/22 06:07:08;;;;;;;1.50;1.40;;;;;-1.70;96510.00;;;;5036047;28;20285;-66
2023/01/22 06:09:36;;;;;;;1.40;1.40;;;;;-1.80;96508.00;;;;5035953;28;20213;-66
2023/01/22 06:12:03;;;;;;;1.57;1.47;;;;;-1.80;96516.00;;;;5035822;28;20213;-66
2023/01/22 06:14:30;;;;;;;2.03;1.93;;;;;-1.80;96522.00;;;;5017252;28;20738;-65
2023/01/22 06:16:58;;;;;;;1.53;1.47;;;;;-1.70;96513.00;;;;5035571;28;20197;-66
2023/01/22 06:19:26;;;;;;;1.87;1.77;;;;;-1.70;96517.00;;;;5035470;28;20278;-66
2023/01/22 06:21:54;;;;;;;2.03;1.57;;;;;-1.60;96527.00;;;;5035661;28;20539;-66
2023/01/22 06:24:21;;;;;;;1.30;1.30;;;;;-1.70;96523.00;;;;5035413;28;20243;-66
2023/01/22 06:26:49;;;;;;;1.93;1.83;;;;;-1.80;96527.00;;;;5035702;28;20610;-66
2023/01/22 06:29:16;;;;;;;1.53;1.50;;;;;-1.70;96535.00;;;;5017512;28;20267;-66
2023/01/22 06:31:43;;;;;;;1.73;1.63;;;;;-1.70;96538.00;;;;5035185;28;20271;-66
2023/01/22 06:34:11;;;;;;;1.83;1.73;;;;;-1.70;96531.00;;;;5035270;28;20599;-66
2023/01/22 06:36:40;;;;;;;1.47;1.43;;;;;-1.70;96528.00;;;;5035165;28;20193;-66
2023/01/22 06:39:07;;;;;;;1.77;1.67;;;;;-1.70;96532.00;;;;5035130;28;20266;-66
2023/01/22 06:41:34;;;;;;;1.93;1.83;;;;;-1.70;96535.00;;;;5035021;28;20660;-66
2023/01/22 06:44:01;;;;;;;1.83;1.73;;;;;-1.70;96529.00;;;;5034980;28;20201;-66
2023/01/22 06:46:29;;;;;;;2.00;1.90;;;;;-1.60;96542.00;;;;5035081;28;20189;-66
2023/01/22 06:48:57;;;;;;;2.63;2.43;;;;;-1.60;96537.00;;;;5034891;28;20217;-66
2023/01/22 06:51:25;;;;;;;1.30;1.30;;;;;-1.60;96546.00;;;;5035478;28;20199;-66
2023/01/22 06:53:53;;;;;;;2.87;2.40;;;;;-1.50;96539.00;;;;5017011;28;20262;-66
2023/01/22 06:56:21;;;;;;;1.83;1.73;;;;;-1.50;96515.00;;;;5034774;28;20193;-66
2023/01/22 06:58:48;;;;;;;1.40;1.40;;;;;-1.50;96545.00;;;;5035063;28;20705;-66
2023/01/22 07:01:16;;;;;;;5.53;2.53;;;;;-1.50;96546.00;;;;5035703;28;20255;-66
2023/01/22 07:03:44;;;;;;;4.37;3.47;;;;;-1.50;96541.00;;;;5035471;28;20193;-66
2023/01/22 07:06:13;;;;;;;3.00;2.57;;;;;-1.40;96546.00;;;;5035636;28;20201;-64
2023/01/22 07:08:41;;;;;;;3.00;2.50;;;;;-1.40;96549.00;;;;5034764;28;20220;-65
2023/01/22 07:11:10;;;;;;;2.23;2.07;;;;;-1.40;96551.00;;;;5034479;28;20193;-65
2023/01/22 07:13:37;;;;;;;2.23;1.97;;;;;-1.40;96552.00;;;;5034336;28;20216;-65
2023/01/22 07:16:05;;;;;;;2.67;2.50;;;;;-1.40;96555.00;;;;5034372;28;20204;-65
2023/01/22 07:18:33;;;;;;;1.13;1.13;;;;;-1.40;96555.00;;;;5034335;28;20695;-65
2023/01/22 07:21:01;;;;;;;1.73;1.63;;;;;-1.40;96555.00;;;;5034281;28;20196;-66
2023/01/22 07:23:29;;;;;;;3.97;2.60;;;;;-1.30;96557.00;;;;5034555;28;20242;-65
2023/01/22 07:25:57;;;;;;;2.10;1.93;;;;;-1.40;96565.00;;;;5015499;28;20251;-66
2023/01/22 07:28:26;;;;;;;1.83;1.73;;;;;-1.30;96561.00;;;;5034098;28;20209;-65
2023/01/22 07:30:55;;;;;;;2.50;2.30;;;;;-1.30;96569.00;;;;5034133;28;20251;-66
2023/01/22 07:33:22;;;;;;;2.30;2.13;;;;;-1.30;96570.00;;;;5034324;28;20216;-65
2023/01/22 07:35:55;;;;;;;1.93;1.83;;;;;-1.20;96574.00;;;;5034074;28;20240;-66
2023/01/22 07:38:23;;;;;;;1.40;1.40;;;;;-1.20;96568.00;;;;5034225;28;20255;-65
2023/01/22 07:40:50;;;;;;;1.43;1.33;;;;;-1.10;96576.00;;;;5033930;28;20196;-66
2023/01/22 07:43:17;;;;;;;2.03;1.93;;;;;-1.10;96571.00;;;;5033917;28;20197;-65
2023/01/22 07:45:46;;;;;;;1.40;1.40;;;;;-1.20;96571.00;;;;5034417;28;20197;-65
2023/01/22 07:48:13;;;;;;;3.50;3.17;;;;;-1.20;96573.00;;;;5033773;28;20213;-65
2023/01/22 07:50:41;;;;;;;2.43;1.93;;;;;-1.20;96577.00;;;;5033754;28;20256;-65
2023/01/22 07:53:10;;;;;;;1.70;1.60;;;;;-1.20;96580.00;;;;5033681;28;20216;-65
2023/01/22 07:55:38;;;;;;;3.20;1.97;;;;;-1.20;96575.00;;;;5033869;28;20283;-65
2023/01/22 07:58:07;;;;;;;5.60;1.77;;;;;-1.20;96574.00;;;;5033900;28;20217;-65
2023/01/22 08:00:35;;;;;;;2.70;2.50;;;;;-1.20;96579.00;;;;5033731;28;20197;-65
2023/01/22 08:03:09;;;;;;;1.33;1.33;;;;;-1.20;96576.00;;;;5033825;28;20189;-65
2023/01/22 08:05:38;;;;;;;1.00;1.00;;;;;-1.20;96583.00;;;;5034105;28;20189;-65
2023/01/22 08:08:06;;;;;;;1.70;1.60;;;;;-1.20;96585.00;;;;5033709;28;20768;-65
2023/01/22 08:10:33;;;;;;;2.73;2.53;;;;;-1.30;96583.00;;;;5033512;28;20197;-65
2023/01/22 08:13:01;;;;;;;1.23;1.23;;;;;-1.30;96585.00;;;;5033319;28;20247;-65
2023/01/22 08:15:28;;;;;;;1.57;1.40;;;;;-1.30;96588.00;;;;5033396;28;20196;-65
2023/01/22 08:17:56;;;;;;;2.10;1.93;;;;;-1.30;96579.00;;;;5033390;28;20220;-64
2023/01/22 08:20:24;;;;;;;1.93;1.83;;;;;-1.30;96597.00;;;;5033591;28;20191;-65
2023/01/22 08:22:56;;;;;;;2.03;1.93;;;;;-1.20;96590.00;;;;5033576;28;20196;-65
2023/01/22 08:25:23;;;;;;;1.10;1.10;;;;;-1.00;96593.00;;;;5033361;28;20185;-65
2023/01/22 08:27:51;;;;;;;2.60;2.10;;;;;-0.90;96595.00;;;;5033654;28;20290;-65
2023/01/22 08:30:18;;;;;;;5.40;2.13;;;;;-1.00;96599.00;;;;5033128;28;20192;-65
2023/01/22 08:32:46;;;;;;;3.83;2.03;;;;;-1.10;96602.00;;;;5033015;28;20691;-65
2023/01/22 08:35:14;;;;;;;4.13;2.20;;;;;-1.00;96597.00;;;;5033081;28;20591;-65
2023/01/22 08:37:43;;;;;;;4.07;2.10;;;;;-0.90;96604.00;;;;5032807;28;20286;-65
2023/01/22 08:40:12;;;;;;;6.43;2.80;;;;;-0.80;96611.00;;;;5033828;28;20221;-65
2023/01/22 08:42:40;;;;;;;3.00;2.23;;;;;-0.80;96610.00;;;;5033036;28;20218;-65
2023/01/22 08:45:08;;;;;;;2.23;1.83;;;;;-0.90;96614.00;;;;5032996;28;20656;-66
2023/01/22 08:47:36;;;;;;;1.43;1.13;;;;;-0.90;96621.00;;;;5032981;28;20217;-65
2023/01/22 08:50:04;;;;;;;2.43;2.23;;;;;-0.80;96621.00;;;;5033177;28;20207;-65
2023/01/22 08:52:31;;;;;;;1.53;1.47;;;;;-0.70;96622.00;;;;5032992;28;20279;-65
2023/01/22 08:55:00;;;;;;;2.03;1.93;;;;;-0.70;96619.00;;;;5015220;28;20660;-65
2023/01/22 08:57:27;;;;;;;4.43;1.63;;;;;-0.60;96622.00;;;;5032815;28;20197;-65
2023/01/22 08:59:55;;;;;;;1.90;1.73;;;;;-0.50;96625.00;;;;5033150;28;20596;-67
2023/01/22 09:02:22;;;;;;;2.60;2.40;;;;;-0.50;96623.00;;;;5032977;28;20256;-67
2023/01/22 09:04:50;;;;;;;1.53;1.43;;;;;-0.50;96625.00;;;;5032920;28;20281;-67
2023/01/22 09:07:17;;;;;;;1.47;1.47;;;;;-0.40;96628.00;;;;5033137;28;20200;-69
2023/01/22 09:09:45;;;;;;;1.97;1.87;;;;;-0.40;96627.00;;;;5033018;28;20198;-66
2023/01/22 09:12:13;;;;;;;1.73;1.63;;;;;-0.20;96620.00;;;;5033088;28;20205;-67
2023/01/22 09:14:41;;;;;;;3.33;3.03;;;;;-0.10;96626.00;;;;5033004;28;20267;-66
2023/01/22 09:17:08;;;;;;;1.63;1.57;;;;;-0.10;96628.00;;;;5032743;28;20688;-67
2023/01/22 09:19:36;;;;;;;5.83;3.07;;;;;-0.10;96636.00;;;;5032858;28;20222;-67
2023/01/22 09:22:05;;;;;;;2.17;1.97;;;;;-0.10;96639.00;;;;5032833;28;20191;-67
2023/01/22 09:24:33;;;;;;;1.50;1.43;;;;;0.10;96634.00;;;;5033049;28;20201;-66
2023/01/22 09:27:00;;;;;;;2.90;2.20;;;;;-0.10;96633.00;;;;5032873;28;20243;-67
2023/01/22 09:29:29;;;;;;;8.53;2.60;;;;;-0.20;96637.00;;;;5032743;28;20324;-66
2023/01/22 09:31:57;;;;;;;1.90;1.80;;;;;0.00;96640.00;;;;5032924;28;20195;-66
2023/01/22 09:34:25;;;;;;;2.53;2.37;;;;;-0.10;96642.00;;;;5032706;28;20289;-66
2023/01/22 09:36:52;;;;;;;2.20;1.97;;;;;-0.20;96637.00;;;;5032995;28;20196;-67
2023/01/22 09:39:19;;;;;;;1.40;1.37;;;;;0.00;96645.00;;;;5032720;28;20284;-67
2023/01/22 09:41:51;;;;;;;1.07;1.07;;;;;0.20;96651.00;;;;5032923;28;20202;-67
2023/01/22 09:44:22;;;;;;;1.80;1.70;;;;;0.20;96642.00;;;;5032911;28;20617;-66
2023/01/22 09:46:56;;;;;;;2.40;1.73;;;;;0.20;96646.00;;;;5033056;28;20205;-67
2023/01/22 09:49:28;;;;;;;1.40;1.40;;;;;0.20;96648.00;;;;5035068;28;20216;-65
2023/01/22 09:51:58;;;;;;;1.60;1.50;;;;;0.30;96651.00;;;;5036074;28;20622;-65
2023/01/22 09:54:27;;;;;;;2.57;2.37;;;;;0.50;96651.00;;;;5035932;28;20221;-65
2023/01/22 09:56:57;;;;;;;1.30;1.30;;;;;0.50;96652.00;;;;5036016;28;20198;-65
2023/01/22 09:59:30;;;;;;;4.37;1.73;;;;;0.40;96652.00;;;;5036003;28;20231;-65
2023/01/22 10:02:03;;;;;;;1.70;1.60;;;;;0.60;96658.00;;;;5036067;28;20190;-65
2023/01/22 10:04:37;;;;;;;1.43;1.33;;;;;0.50;96654.00;;;;5036380;28;20686;-66
2023/01/22 10:07:11;;;;;;;2.37;2.20;;;;;0.40;96657.00;;;;5035855;28;20208;-65
2023/01/22 10:09:40;;;;;;;1.77;1.67;;;;;0.50;96646.00;;;;5035985;28;20264;-66
2023/01/22 10:12:13;;;;;;;1.10;1.10;;;;;0.50;96645.00;;;;5036003;28;20557;-67
2023/01/22 10:14:43;;;;;;;2.87;2.33;;;;;0.50;96648.00;;;;5036254;28;20206;-66
2023/01/22 10:17:19;;;;;;;2.57;2.37;;;;;0.60;96646.00;;;;5017903;28;20673;-67
2023/01/22 10:19:50;;;;;;;1.37;1.33;;;;;0.60;96642.00;;;;5035587;28;20218;-66
2023/01/22 10:22:21;;;;;;;1.73;1.63;;;;;0.60;96657.00;;;;5036049;28;20190;-67
2023/01/22 10:24:48;;;;;;;1.27;1.20;;;;;0.60;96657.00;;;;5035493;28;20186;-66
2023/01/22 10:27:18;;;;;;;2.07;1.97;;;;;0.70;96653.00;;;;5035691;28;20685;-66
2023/01/22 10:29:57;;;;;;;2.23;2.13;;;;;0.60;96668.00;;;;5035356;28;20194;-66
2023/01/22 10:32:28;;;;;;;1.20;1.20;;;;;0.70;96648.00;;;;5035695;28;20190;-66
2023/01/22 10:35:04;;;;;;;2.77;1.50;;;;;0.60;96661.00;;;;5035713;28;20212;-67
2023/01/22 10:37:44;;;;;;;1.50;1.40;;;;;0.50;96650.00;;;;5035199;28;20224;-66
2023/01/22 10:40:23;;;;;;;1.57;1.50;;;;;0.60;96645.00;;;;5035251;28;20272;-65
2023/01/22 10:43:05;;;;;;;26.97;2.67;;;;;0.70;96654.00;;;;5035708;28;20177;-66
2023/01/22 10:45:33;;;;;;;1.83;1.70;;;;;0.70;96653.00;;;;5035222;28;20186;-66
2023/01/22 10:48:10;;;;;;;2.37;1.67;;;;;0.70;96647.00;;;;5035130;28;20267;-66
2023/01/22 10:50:38;;;;;;;1.00;1.00;;;;;0.90;96640.00;;;;5035093;28;20188;-66
2023/01/22 10:53:13;;;;;;;1.93;1.80;;;;;1.00;96648.00;;;;5035413;28;20257;-66
2023/01/22 10:55:42;;;;;;;2.47;2.00;;;;;1.10;96647.00;;;;5035080;28;20179;-66
2023/01/22 10:58:16;;;;;;;2.27;2.10;;;;;1.10;96645.00;;;;5035143;28;20213;-66
2023/01/22 11:00:44;;;;;;;1.53;1.53;;;;;1.30;96646.00;;;;5035029;28;20266;-66
2023/01/22 11:03:22;;;;;;;1.43;1.37;;;;;1.30;96648.00;;;;5034753;28;20209;-66
2023/01/22 11:05:56;;;;;;;1.77;1.67;;;;;1.10;96658.00;;;;5034722;28;20634;-66
2023/01/22 11:08:29;;;;;;;1.47;1.37;;;;;1.00;96651.00;;;;5034913;28;20300;-66
2023/01/22 11:11:00;;;;;;;1.50;1.47;;;;;1.00;96649.00;;;;5034653;28;20211;-66
2023/01/22 11:13:33;;;;;;;1.33;1.27;;;;;1.00;96660.00;;;;5034528;28;20207;-65
2023/01/22 11:16:10;;;;;;;1.43;1.33;;;;;1.20;96659.00;;;;5034588;28;20253;-65
2023/01/22 11:18:42;;;;;;;1.67;1.57;;;;;1.30;96658.00;;;;5034507;28;20296;-65
2023/01/22 11:21:15;;;;;;;1.50;1.40;;;;;1.30;96652.00;;;;5034746;28;20598;-65
2023/01/22 11:23:49;;;;;;;1.97;1.87;;;;;1.40;96659.00;;;;5034509;28;20179;-66
2023/01/22 11:26:25;;;;;;;1.53;1.43;;;;;1.40;96652.00;;;;5034707;28;20232;-65
2023/01/22 11:29:00;;;;;;;1.20;1.20;;;;;1.50;96650.00;;;;5034780;28;20720;-65
2023/01/22 11:31:46;;;;;;;1.77;1.67;;;;;1.50;96655.00;;;;5034508;28;20190;-65
2023/01/22 11:34:50;;;;;;;1.47;1.37;;;;;1.70;96649.00;;;;5034158;28;20289;-66
2023/01/22 11:37:21;;;;;;;1.83;1.73;;;;;1.60;96653.00;;;;5002567;28;20205;-65
2023/01/22 11:40:09;;;;;;;0.83;0.83;;;;;1.50;96650.00;;;;5034217;28;20184;-66
2023/01/22 11:42:51;;;;;;;1.00;1.00;;;;;1.40;96650.00;;;;5034304;28;20574;-65
2023/01/22 11:45:42;;;;;;;1.80;1.70;;;;;1.40;96658.00;;;;5034165;28;20185;-65
2023/01/22 11:48:24;;;;;;;1.43;1.33;;;;;1.30;96657.00;;;;5033926;28;20346;-66
2023/01/22 11:50:59;;;;;;;1.77;1.67;;;;;1.20;96657.00;;;;5034109;28;20177;-66
2023/01/22 11:53:48;;;;;;;1.27;1.10;;;;;1.20;96659.00;;;;5016288;28;20288;-66
2023/01/22 11:56:40;;;;;;;1.10;1.10;;;;;1.00;96656.00;;;;5034019;28;20226;-66
2023/01/22 11:59:13;;;;;;;2.57;1.40;;;;;1.00;96651.00;;;;5033725;28;20210;-66
2023/01/22 12:01:58;;;;;;;1.20;1.20;;;;;1.00;96659.00;;;;5034211;28;20184;-67
2023/01/22 12:05:03;;;;;;;2.27;1.87;;;;;1.00;96626.00;;;;5033844;28;20175;-66
2023/01/22 12:08:02;;;;;;;2.10;2.00;;;;;0.90;96657.00;;;;5002935;28;20205;-66
2023/01/22 12:10:57;;;;;;;2.73;1.50;;;;;0.90;96662.00;;;;5033065;28;20197;-66
2023/01/22 12:13:39;;;;;;;1.53;1.43;;;;;0.90;96654.00;;;;5033371;28;20198;-66
2023/01/22 12:16:14;;;;;;;1.70;1.60;;;;;0.80;96659.00;;;;5033590;28;20201;-69
2023/01/22 12:19:13;;;;;;;1.27;1.23;;;;;0.90;96656.00;;;;5015763;28;20227;-66
2023/01/22 12:21:51;;;;;;;2.33;2.13;;;;;0.80;96666.00;;;;5033649;28;20562;-64
2023/01/22 12:24:26;;;;;;;2.80;2.57;;;;;0.80;96659.00;;;;5033777;28;20177;-66
2023/01/22 12:27:01;;;;;;;2.20;2.10;;;;;0.90;96654.00;;;;5033585;28;20187;-65
2023/01/22 12:29:34;;;;;;;2.77;2.40;;;;;1.00;96673.00;;;;5033776;28;20216;-66
2023/01/22 12:32:09;;;;;;;1.20;1.20;;;;;1.00;96660.00;;;;5033568;28;20621;-64
2023/01/22 12:34:43;;;;;;;2.40;2.20;;;;;1.00;96664.00;;;;5033170;28;20561;-64
2023/01/22 12:37:15;;;;;;;8.67;2.73;;;;;1.00;96665.00;;;;5033392;28;20743;-64
2023/01/22 12:39:55;;;;;;;3.10;2.30;;;;;1.00;96666.00;;;;5033630;28;20188;-64
2023/01/22 12:42:31;;;;;;;1.73;1.67;;;;;0.80;96658.00;;;;5033408;28;20195;-65